Terminal Aerodrome Forecast
Issued by NWS Omaha/Valley, NE

Home | Current Version | Previous Version | Text Only | Print | Product List | Glossary On
Versions: 1 2 3 4 5 6 7 8 9 10 11 12 13 14 15 16 17 18 19 20 21 22 23 24 25 26 27 28 29 30 31 32 33 34 35 36 37 38 39 40 41
000
FTUS43 KOAX 061725 AAC
TAFLNK
TAF AMD
KLNK 061725Z 0617/0718 35012KT P6SM SCT012 OVC025
      TEMPO 0618/0620 4SM -TSRA BR BKN012CB
     FM062200 35015G24KT P6SM BKN025
     FM070200 36012KT P6SM SCT025 BKN100
     FM070600 36009KT P6SM SCT250=

USA.gov is the U.S. government's official web portal to all federal, state and local government web resources and services.